Flugplatz Braunschweig Wolfsburg

Bericht für EDVE

vom 18.09. um 01:50 UTC

Wind 4 kt aus 280°

Sichtweite 10 km oder mehr

aufgebrochene Bewölkung in 4400 ft

Temperatur 10.0°C

Taupunkt 9.0°C

Luftfeuchtigkeit 93%

Luftdruck 1016 hPa

EDVE 180150Z AUTO 28004KT 9999 // BKN044/// 10/09 Q1016
Keine Prognose (TAF) verfügbar.
Impressum